sensor_id;sensor_type;location;lat;lon;timestamp;pressure;altitude;pressure_sealevel;temperature;humidity
69187;BME280;56301;56.864;60.554;2023-06-22T00:01:49;97738.13;;;22.33;46.48
69187;BME280;56301;56.864;60.554;2023-06-22T00:04:11;97745.53;;;22.31;46.31
69187;BME280;56301;56.864;60.554;2023-06-22T00:06:34;97744.25;;;22.27;46.98
69187;BME280;56301;56.864;60.554;2023-06-22T00:08:56;97739.56;;;22.36;46.90
69187;BME280;56301;56.864;60.554;2023-06-22T00:11:19;97745.41;;;22.40;46.67
69187;BME280;56301;56.864;60.554;2023-06-22T00:13:41;97743.09;;;22.37;46.38
69187;BME280;56301;56.864;60.554;2023-06-22T00:16:04;97742.25;;;22.36;47.21
69187;BME280;56301;56.864;60.554;2023-06-22T00:18:26;97746.06;;;22.42;46.82
69187;BME280;56301;56.864;60.554;2023-06-22T00:20:49;97741.03;;;22.39;46.98
69187;BME280;56301;56.864;60.554;2023-06-22T00:23:11;97743.88;;;22.30;46.40
69187;BME280;56301;56.864;60.554;2023-06-22T00:25:34;97756.31;;;22.31;46.64
69187;BME280;56301;56.864;60.554;2023-06-22T00:27:57;97758.34;;;22.29;46.17
69187;BME280;56301;56.864;60.554;2023-06-22T00:30:19;97758.34;;;22.29;46.67
69187;BME280;56301;56.864;60.554;2023-06-22T00:32:43;97762.09;;;22.28;46.35
69187;BME280;56301;56.864;60.554;2023-06-22T00:35:06;97760.44;;;22.27;46.92
69187;BME280;56301;56.864;60.554;2023-06-22T00:37:29;97761.94;;;22.37;46.12
69187;BME280;56301;56.864;60.554;2023-06-22T00:39:51;97758.88;;;22.40;46.36
69187;BME280;56301;56.864;60.554;2023-06-22T00:42:15;97760.75;;;22.39;46.94
69187;BME280;56301;56.864;60.554;2023-06-22T00:44:37;97766.50;;;22.36;47.25
69187;BME280;56301;56.864;60.554;2023-06-22T00:47:00;97763.66;;;22.38;46.59
69187;BME280;56301;56.864;60.554;2023-06-22T00:49:22;97770.91;;;22.37;46.94
69187;BME280;56301;56.864;60.554;2023-06-22T00:51:45;97766.28;;;22.31;46.20
69187;BME280;56301;56.864;60.554;2023-06-22T00:54:08;97769.13;;;22.29;46.53
69187;BME280;56301;56.864;60.554;2023-06-22T00:56:30;97774.53;;;22.29;46.36
69187;BME280;56301;56.864;60.554;2023-06-22T00:58:54;97777.44;;;22.28;46.38
69187;BME280;56301;56.864;60.554;2023-06-22T01:01:16;97774.53;;;22.29;46.27
69187;BME280;56301;56.864;60.554;2023-06-22T01:03:38;97779.28;;;22.27;47.21
69187;BME280;56301;56.864;60.554;2023-06-22T01:06:02;97772.94;;;22.35;46.94
69187;BME280;56301;56.864;60.554;2023-06-22T01:08:31;97775.69;;;22.42;46.00
69187;BME280;56301;56.864;60.554;2023-06-22T01:11:08;97777.13;;;22.38;47.26
69187;BME280;56301;56.864;60.554;2023-06-22T01:16:08;97788.81;;;22.45;47.54
69187;BME280;56301;56.864;60.554;2023-06-22T01:18:34;97781.84;;;22.35;46.58
69187;BME280;56301;56.864;60.554;2023-06-22T01:20:57;97788.66;;;22.31;46.15
69187;BME280;56301;56.864;60.554;2023-06-22T01:23:33;97785.31;;;22.29;46.48
69187;BME280;56301;56.864;60.554;2023-06-22T01:31:07;97783.78;;;22.42;46.62
69187;BME280;56301;56.864;60.554;2023-06-22T01:33:35;97790.00;;;22.42;46.52
69187;BME280;56301;56.864;60.554;2023-06-22T01:35:59;97787.56;;;22.47;46.97
69187;BME280;56301;56.864;60.554;2023-06-22T01:38:22;97792.00;;;22.55;46.80
69187;BME280;56301;56.864;60.554;2023-06-22T01:40:45;97800.13;;;22.62;46.09
69187;BME280;56301;56.864;60.554;2023-06-22T01:43:08;97791.72;;;22.71;46.20
69187;BME280;56301;56.864;60.554;2023-06-22T01:45:31;97802.66;;;22.63;46.13
69187;BME280;56301;56.864;60.554;2023-06-22T01:47:54;97789.94;;;22.57;46.08
69187;BME280;56301;56.864;60.554;2023-06-22T01:50:17;97804.63;;;22.54;46.21
69187;BME280;56301;56.864;60.554;2023-06-22T01:52:39;97800.47;;;22.52;45.76
69187;BME280;56301;56.864;60.554;2023-06-22T01:55:02;97799.66;;;22.51;45.79
69187;BME280;56301;56.864;60.554;2023-06-22T01:57:24;97807.91;;;22.50;46.34
69187;BME280;56301;56.864;60.554;2023-06-22T02:02:19;97811.44;;;22.50;46.38
69187;BME280;56301;56.864;60.554;2023-06-22T02:04:51;97806.50;;;22.54;45.96
69187;BME280;56301;56.864;60.554;2023-06-22T02:07:17;97814.66;;;22.61;46.40
69187;BME280;56301;56.864;60.554;2023-06-22T02:09:40;97813.88;;;22.67;45.86
69187;BME280;56301;56.864;60.554;2023-06-22T02:12:04;97811.88;;;22.75;46.20
69187;BME280;56301;56.864;60.554;2023-06-22T02:14:28;97816.22;;;22.70;45.54
69187;BME280;56301;56.864;60.554;2023-06-22T02:16:51;97814.06;;;22.65;45.79
69187;BME280;56301;56.864;60.554;2023-06-22T02:19:14;97814.28;;;22.64;45.75
69187;BME280;56301;56.864;60.554;2023-06-22T02:21:37;97819.22;;;22.60;45.60
69187;BME280;56301;56.864;60.554;2023-06-22T02:24:00;97818.38;;;22.59;45.83
69187;BME280;56301;56.864;60.554;2023-06-22T02:26:25;97823.94;;;22.58;45.62
69187;BME280;56301;56.864;60.554;2023-06-22T02:28:49;97818.97;;;22.55;45.86
69187;BME280;56301;56.864;60.554;2023-06-22T02:31:13;97818.13;;;22.54;45.71
69187;BME280;56301;56.864;60.554;2023-06-22T02:33:35;97822.09;;;22.58;46.37
69187;BME280;56301;56.864;60.554;2023-06-22T02:35:58;97818.63;;;22.65;45.85
69187;BME280;56301;56.864;60.554;2023-06-22T02:38:20;97821.59;;;22.70;46.00
69187;BME280;56301;56.864;60.554;2023-06-22T02:40:43;97819.97;;;22.75;46.02
69187;BME280;56301;56.864;60.554;2023-06-22T02:43:06;97829.56;;;22.78;45.54
69187;BME280;56301;56.864;60.554;2023-06-22T02:45:28;97822.03;;;22.73;45.94
69187;BME280;56301;56.864;60.554;2023-06-22T02:47:51;97820.56;;;22.71;45.81
69187;BME280;56301;56.864;60.554;2023-06-22T02:50:14;97824.28;;;22.70;45.69
69187;BME280;56301;56.864;60.554;2023-06-22T02:52:36;97829.03;;;22.68;45.50
69187;BME280;56301;56.864;60.554;2023-06-22T02:54:59;97827.53;;;22.65;46.12
69187;BME280;56301;56.864;60.554;2023-06-22T02:57:22;97835.00;;;22.63;46.03
69187;BME280;56301;56.864;60.554;2023-06-22T02:59:44;97832.31;;;22.63;45.93
69187;BME280;56301;56.864;60.554;2023-06-22T03:02:08;97831.28;;;22.64;46.15
69187;BME280;56301;56.864;60.554;2023-06-22T03:04:31;97837.78;;;22.70;46.28
69187;BME280;56301;56.864;60.554;2023-06-22T03:06:53;97835.78;;;22.78;45.90
69187;BME280;56301;56.864;60.554;2023-06-22T03:09:15;97835.19;;;22.83;45.88
69187;BME280;56301;56.864;60.554;2023-06-22T03:11:38;97837.13;;;22.89;46.35
69187;BME280;56301;56.864;60.554;2023-06-22T03:14:00;97838.63;;;22.92;45.61
69187;BME280;56301;56.864;60.554;2023-06-22T03:16:24;97840.56;;;22.83;45.68
69187;BME280;56301;56.864;60.554;2023-06-22T03:18:46;97835.56;;;22.80;45.99
69187;BME280;56301;56.864;60.554;2023-06-22T03:21:09;97836.81;;;22.77;45.51
69187;BME280;56301;56.864;60.554;2023-06-22T03:23:31;97839.06;;;22.74;45.68
69187;BME280;56301;56.864;60.554;2023-06-22T03:25:54;97840.28;;;22.71;46.05
69187;BME280;56301;56.864;60.554;2023-06-22T03:28:16;97850.22;;;22.71;45.64
69187;BME280;56301;56.864;60.554;2023-06-22T03:30:39;97843.78;;;22.72;45.63
69187;BME280;56301;56.864;60.554;2023-06-22T03:33:01;97835.13;;;22.76;46.23
69187;BME280;56301;56.864;60.554;2023-06-22T03:35:23;97844.97;;;22.84;46.08
69187;BME280;56301;56.864;60.554;2023-06-22T03:37:46;97843.13;;;22.91;45.53
69187;BME280;56301;56.864;60.554;2023-06-22T03:40:08;97849.91;;;23.02;45.72
69187;BME280;56301;56.864;60.554;2023-06-22T03:42:33;97850.41;;;23.12;45.90
69187;BME280;56301;56.864;60.554;2023-06-22T03:44:56;97850.94;;;23.01;47.38
69187;BME280;56301;56.864;60.554;2023-06-22T03:47:18;97861.78;;;22.86;47.53
69187;BME280;56301;56.864;60.554;2023-06-22T03:49:40;97859.47;;;22.83;47.54
69187;BME280;56301;56.864;60.554;2023-06-22T03:52:03;97856.63;;;22.91;46.34
69187;BME280;56301;56.864;60.554;2023-06-22T03:54:26;97856.91;;;22.96;46.03
69187;BME280;56301;56.864;60.554;2023-06-22T03:56:48;97858.97;;;22.94;46.48
69187;BME280;56301;56.864;60.554;2023-06-22T03:59:10;97861.88;;;22.93;47.37
69187;BME280;56301;56.864;60.554;2023-06-22T04:01:33;97853.56;;;22.94;47.10
69187;BME280;56301;56.864;60.554;2023-06-22T04:03:55;97856.09;;;22.96;46.42
69187;BME280;56301;56.864;60.554;2023-06-22T04:06:18;97865.19;;;22.95;45.94
69187;BME280;56301;56.864;60.554;2023-06-22T04:08:40;97861.97;;;22.85;46.93
69187;BME280;56301;56.864;60.554;2023-06-22T04:11:02;97865.88;;;22.82;46.77
69187;BME280;56301;56.864;60.554;2023-06-22T04:13:25;97862.75;;;22.78;46.93
69187;BME280;56301;56.864;60.554;2023-06-22T04:15:47;97875.41;;;22.78;46.80
69187;BME280;56301;56.864;60.554;2023-06-22T04:18:10;97870.19;;;22.76;46.37
69187;BME280;56301;56.864;60.554;2023-06-22T04:20:32;97872.03;;;22.76;47.79
69187;BME280;56301;56.864;60.554;2023-06-22T04:22:55;97877.63;;;22.74;47.72
69187;BME280;56301;56.864;60.554;2023-06-22T04:25:17;97873.47;;;22.72;46.89
69187;BME280;56301;56.864;60.554;2023-06-22T04:27:40;97880.34;;;22.74;47.29
69187;BME280;56301;56.864;60.554;2023-06-22T04:30:05;97876.16;;;22.72;46.84
69187;BME280;56301;56.864;60.554;2023-06-22T04:32:27;97875.97;;;22.73;46.23
69187;BME280;56301;56.864;60.554;2023-06-22T04:34:50;97880.50;;;22.73;46.21
69187;BME280;56301;56.864;60.554;2023-06-22T04:37:31;97880.50;;;22.73;46.65
69187;BME280;56301;56.864;60.554;2023-06-22T04:39:54;97874.28;;;22.72;45.53
69187;BME280;56301;56.864;60.554;2023-06-22T04:42:16;97872.63;;;22.71;46.59
69187;BME280;56301;56.864;60.554;2023-06-22T04:44:39;97880.91;;;22.70;46.89
69187;BME280;56301;56.864;60.554;2023-06-22T04:47:02;97880.06;;;22.69;47.01
69187;BME280;56301;56.864;60.554;2023-06-22T04:49:24;97876.53;;;22.69;48.14
69187;BME280;56301;56.864;60.554;2023-06-22T04:51:47;97881.94;;;22.69;48.33
69187;BME280;56301;56.864;60.554;2023-06-22T04:54:10;97882.97;;;22.68;48.14
69187;BME280;56301;56.864;60.554;2023-06-22T04:56:33;97885.66;;;22.68;48.48
69187;BME280;56301;56.864;60.554;2023-06-22T04:58:55;97880.25;;;22.68;48.26
69187;BME280;56301;56.864;60.554;2023-06-22T05:01:18;97878.41;;;22.68;47.89
69187;BME280;56301;56.864;60.554;2023-06-22T05:03:41;97883.78;;;22.68;47.96
69187;BME280;56301;56.864;60.554;2023-06-22T05:06:03;97885.44;;;22.69;47.91
69187;BME280;56301;56.864;60.554;2023-06-22T05:08:25;97885.66;;;22.68;47.97
69187;BME280;56301;56.864;60.554;2023-06-22T05:10:48;97891.88;;;22.68;47.99
69187;BME280;56301;56.864;60.554;2023-06-22T05:13:10;97887.53;;;22.67;47.75
69187;BME280;56301;56.864;60.554;2023-06-22T05:15:33;97891.88;;;22.68;48.03
69187;BME280;56301;56.864;60.554;2023-06-22T05:17:55;97891.88;;;22.68;48.35
69187;BME280;56301;56.864;60.554;2023-06-22T05:20:18;97897.28;;;22.68;46.79
69187;BME280;56301;56.864;60.554;2023-06-22T05:22:40;97898.09;;;22.69;47.53
69187;BME280;56301;56.864;60.554;2023-06-22T05:25:03;97897.28;;;22.68;47.53
69187;BME280;56301;56.864;60.554;2023-06-22T05:27:25;97894.56;;;22.68;47.42
69187;BME280;56301;56.864;60.554;2023-06-22T05:29:48;97904.31;;;22.69;47.10
69187;BME280;56301;56.864;60.554;2023-06-22T05:32:10;97903.69;;;22.67;47.58
69187;BME280;56301;56.864;60.554;2023-06-22T05:34:33;97906.41;;;22.67;47.04
69187;BME280;56301;56.864;60.554;2023-06-22T05:36:55;97903.69;;;22.67;47.37
69187;BME280;56301;56.864;60.554;2023-06-22T05:39:18;97916.16;;;22.68;46.84
69187;BME280;56301;56.864;60.554;2023-06-22T05:41:40;97910.97;;;22.67;47.62
69187;BME280;56301;56.864;60.554;2023-06-22T05:44:03;97909.25;;;22.66;47.54
69187;BME280;56301;56.864;60.554;2023-06-22T05:46:26;97912.63;;;22.68;47.36
69187;BME280;56301;56.864;60.554;2023-06-22T05:48:48;97909.72;;;22.69;47.16
69187;BME280;56301;56.864;60.554;2023-06-22T05:51:10;97902.50;;;22.70;47.06
69187;BME280;56301;56.864;60.554;2023-06-22T05:53:33;97898.75;;;22.71;47.40
69187;BME280;56301;56.864;60.554;2023-06-22T05:55:57;97890.47;;;22.72;46.96
69187;BME280;56301;56.864;60.554;2023-06-22T05:58:19;97890.47;;;22.72;47.08
69187;BME280;56301;56.864;60.554;2023-06-22T06:00:42;97910.38;;;22.71;47.63
69187;BME280;56301;56.864;60.554;2023-06-22T06:03:04;97897.09;;;22.70;47.12
69187;BME280;56301;56.864;60.554;2023-06-22T06:05:27;97899.78;;;22.70;47.55
69187;BME280;56301;56.864;60.554;2023-06-22T06:07:49;97901.63;;;22.69;47.06
69187;BME280;56301;56.864;60.554;2023-06-22T06:10:12;97898.09;;;22.69;47.05
69187;BME280;56301;56.864;60.554;2023-06-22T06:12:36;97906.03;;;22.70;47.25
69187;BME280;56301;56.864;60.554;2023-06-22T06:14:58;97903.94;;;22.72;46.99
69187;BME280;56301;56.864;60.554;2023-06-22T06:17:21;97902.38;;;22.78;46.55
69187;BME280;56301;56.864;60.554;2023-06-22T06:19:43;97899.47;;;22.79;47.11
69187;BME280;56301;56.864;60.554;2023-06-22T06:22:06;97891.38;;;22.79;47.16
69187;BME280;56301;56.864;60.554;2023-06-22T06:24:28;97900.50;;;22.78;46.62
69187;BME280;56301;56.864;60.554;2023-06-22T06:26:51;97903.19;;;22.78;46.61
69187;BME280;56301;56.864;60.554;2023-06-22T06:29:13;97906.56;;;22.80;46.74
69187;BME280;56301;56.864;60.554;2023-06-22T06:31:35;97912.13;;;22.79;47.19
69187;BME280;56301;56.864;60.554;2023-06-22T06:33:58;97901.31;;;22.79;47.38
69187;BME280;56301;56.864;60.554;2023-06-22T06:36:20;97898.63;;;22.79;46.72
69187;BME280;56301;56.864;60.554;2023-06-22T06:38:43;97903.19;;;22.78;47.32
69187;BME280;56301;56.864;60.554;2023-06-22T06:41:05;97909.41;;;22.79;46.93
69187;BME280;56301;56.864;60.554;2023-06-22T06:43:28;97905.69;;;22.80;47.17
69187;BME280;56301;56.864;60.554;2023-06-22T06:45:50;97909.88;;;22.82;46.69
69187;BME280;56301;56.864;60.554;2023-06-22T06:48:13;97907.84;;;22.85;46.89
69187;BME280;56301;56.864;60.554;2023-06-22T06:50:35;97911.97;;;22.87;47.08
69187;BME280;56301;56.864;60.554;2023-06-22T06:52:58;97905.38;;;22.90;47.44
69187;BME280;56301;56.864;60.554;2023-06-22T06:55:20;97904.53;;;22.89;46.47
69187;BME280;56301;56.864;60.554;2023-06-22T06:57:43;97913.13;;;22.93;46.40
69187;BME280;56301;56.864;60.554;2023-06-22T07:00:06;97918.97;;;22.96;46.70
69187;BME280;56301;56.864;60.554;2023-06-22T07:02:30;97911.91;;;22.95;46.40
69187;BME280;56301;56.864;60.554;2023-06-22T07:04:53;97916.06;;;22.98;46.55
69187;BME280;56301;56.864;60.554;2023-06-22T07:07:16;97908.81;;;22.98;47.03
69187;BME280;56301;56.864;60.554;2023-06-22T07:09:38;97909.00;;;22.97;46.92
69187;BME280;56301;56.864;60.554;2023-06-22T07:12:01;97908.34;;;22.95;47.02
69187;BME280;56301;56.864;60.554;2023-06-22T07:14:23;97910.44;;;22.93;46.69
69187;BME280;56301;56.864;60.554;2023-06-22T07:16:46;97915.97;;;22.91;46.85
69187;BME280;56301;56.864;60.554;2023-06-22T07:19:10;97904.53;;;22.89;46.99
69187;BME280;56301;56.864;60.554;2023-06-22T07:21:33;97918.50;;;22.93;46.44
69187;BME280;56301;56.864;60.554;2023-06-22T07:23:55;97908.75;;;22.92;47.20
69187;BME280;56301;56.864;60.554;2023-06-22T07:26:18;97918.88;;;22.90;47.27
69187;BME280;56301;56.864;60.554;2023-06-22T07:28:40;97911.25;;;22.93;47.01
69187;BME280;56301;56.864;60.554;2023-06-22T07:31:03;97901.94;;;22.96;46.80
69187;BME280;56301;56.864;60.554;2023-06-22T07:33:25;97915.88;;;22.99;46.92
69187;BME280;56301;56.864;60.554;2023-06-22T07:35:48;97911.50;;;22.98;46.99
69187;BME280;56301;56.864;60.554;2023-06-22T07:38:10;97906.97;;;22.99;46.56
69187;BME280;56301;56.864;60.554;2023-06-22T07:40:32;97910.50;;;22.99;46.40
69187;BME280;56301;56.864;60.554;2023-06-22T07:42:55;97910.66;;;22.98;46.57
69187;BME280;56301;56.864;60.554;2023-06-22T07:45:17;97912.75;;;22.96;47.34
69187;BME280;56301;56.864;60.554;2023-06-22T07:47:40;97901.28;;;22.94;47.15
69187;BME280;56301;56.864;60.554;2023-06-22T07:50:03;97910.44;;;22.93;46.89
69187;BME280;56301;56.864;60.554;2023-06-22T07:52:25;97911.59;;;22.90;46.95
69187;BME280;56301;56.864;60.554;2023-06-22T07:54:48;97923.22;;;22.91;47.16
69187;BME280;56301;56.864;60.554;2023-06-22T07:57:10;97914.50;;;22.89;47.02
69187;BME280;56301;56.864;60.554;2023-06-22T07:59:32;97910.16;;;22.88;47.22
69187;BME280;56301;56.864;60.554;2023-06-22T08:01:55;97916.53;;;22.87;46.92
69187;BME280;56301;56.864;60.554;2023-06-22T08:04:17;97917.84;;;22.91;46.82
69187;BME280;56301;56.864;60.554;2023-06-22T08:06:40;97919.13;;;22.95;46.71
69187;BME280;56301;56.864;60.554;2023-06-22T08:09:04;97919.78;;;22.97;46.80
69187;BME280;56301;56.864;60.554;2023-06-22T08:11:26;97918.13;;;22.96;46.64
69187;BME280;56301;56.864;60.554;2023-06-22T08:13:49;97920.84;;;22.96;47.00
69187;BME280;56301;56.864;60.554;2023-06-22T08:16:11;97921.84;;;22.95;47.12
69187;BME280;56301;56.864;60.554;2023-06-22T08:18:33;97919.13;;;22.95;46.89
69187;BME280;56301;56.864;60.554;2023-06-22T08:20:56;97926.59;;;22.93;46.50
69187;BME280;56301;56.864;60.554;2023-06-22T08:23:18;97933.03;;;22.92;46.83
69187;BME280;56301;56.864;60.554;2023-06-22T08:25:41;97928.63;;;22.91;46.92
69187;BME280;56301;56.864;60.554;2023-06-22T08:28:03;97940.66;;;22.88;46.96
69187;BME280;56301;56.864;60.554;2023-06-22T08:30:26;97937.28;;;22.86;47.17
69187;BME280;56301;56.864;60.554;2023-06-22T08:32:48;97943.53;;;22.87;47.00
69187;BME280;56301;56.864;60.554;2023-06-22T08:35:11;97941.84;;;22.86;46.88
69187;BME280;56301;56.864;60.554;2023-06-22T08:37:33;97939.38;;;22.84;46.94
69187;BME280;56301;56.864;60.554;2023-06-22T08:39:58;97939.38;;;22.84;46.68
69187;BME280;56301;56.864;60.554;2023-06-22T08:42:20;97943.91;;;22.83;47.11
69187;BME280;56301;56.864;60.554;2023-06-22T08:44:43;97953.03;;;22.82;46.73
69187;BME280;56301;56.864;60.554;2023-06-22T08:47:05;97952.00;;;22.83;46.93
69187;BME280;56301;56.864;60.554;2023-06-22T08:49:27;97949.28;;;22.83;47.09
69187;BME280;56301;56.864;60.554;2023-06-22T08:51:53;97949.28;;;22.83;46.80
69187;BME280;56301;56.864;60.554;2023-06-22T08:54:15;97943.91;;;22.83;46.69
69187;BME280;56301;56.864;60.554;2023-06-22T08:56:38;97943.06;;;22.83;47.04
69187;BME280;56301;56.864;60.554;2023-06-22T08:59:00;97952.00;;;22.83;46.62
69187;BME280;56301;56.864;60.554;2023-06-22T09:01:22;97943.91;;;22.83;46.38
69187;BME280;56301;56.864;60.554;2023-06-22T09:03:45;97944.75;;;22.84;46.60
69187;BME280;56301;56.864;60.554;2023-06-22T09:06:07;97943.91;;;22.83;46.32
69187;BME280;56301;56.864;60.554;2023-06-22T09:08:30;97947.25;;;22.86;46.90
69187;BME280;56301;56.864;60.554;2023-06-22T09:10:52;97950.19;;;22.91;46.58
69187;BME280;56301;56.864;60.554;2023-06-22T09:13:15;97943.41;;;22.95;45.69
69187;BME280;56301;56.864;60.554;2023-06-22T09:15:37;97949.03;;;22.93;46.35
69187;BME280;56301;56.864;60.554;2023-06-22T09:18:00;97940.25;;;22.91;46.07
69187;BME280;56301;56.864;60.554;2023-06-22T09:20:22;97955.59;;;22.91;46.29
69187;BME280;56301;56.864;60.554;2023-06-22T09:22:45;97932.34;;;22.90;46.47
69187;BME280;56301;56.864;60.554;2023-06-22T09:25:07;97949.38;;;22.90;46.34
69187;BME280;56301;56.864;60.554;2023-06-22T09:27:30;97956.63;;;22.90;46.38
69187;BME280;56301;56.864;60.554;2023-06-22T09:29:52;97956.00;;;22.88;46.53
69187;BME280;56301;56.864;60.554;2023-06-22T09:32:15;97949.22;;;22.92;45.95
69187;BME280;56301;56.864;60.554;2023-06-22T09:34:37;97954.63;;;22.92;45.89
69187;BME280;56301;56.864;60.554;2023-06-22T09:36:59;97954.75;;;22.90;46.04
69187;BME280;56301;56.864;60.554;2023-06-22T09:39:22;97960.34;;;22.89;45.50
69187;BME280;56301;56.864;60.554;2023-06-22T09:41:44;97956.19;;;22.86;46.36
69187;BME280;56301;56.864;60.554;2023-06-22T09:44:07;97958.88;;;22.86;45.86
69187;BME280;56301;56.864;60.554;2023-06-22T09:46:29;97963.44;;;22.86;45.97
69187;BME280;56301;56.864;60.554;2023-06-22T09:48:52;97962.59;;;22.85;45.61
69187;BME280;56301;56.864;60.554;2023-06-22T09:51:14;97967.16;;;22.85;45.42
69187;BME280;56301;56.864;60.554;2023-06-22T09:53:37;97967.16;;;22.85;45.48
69187;BME280;56301;56.864;60.554;2023-06-22T09:56:00;97963.63;;;22.84;45.57
69187;BME280;56301;56.864;60.554;2023-06-22T09:58:22;97970.88;;;22.83;45.18
69187;BME280;56301;56.864;60.554;2023-06-22T10:00:45;97976.25;;;22.83;45.12
69187;BME280;56301;56.864;60.554;2023-06-22T10:03:07;97976.25;;;22.83;45.00
69187;BME280;56301;56.864;60.554;2023-06-22T10:05:30;97978.97;;;22.83;45.05
69187;BME280;56301;56.864;60.554;2023-06-22T10:07:52;97971.72;;;22.84;45.12
69187;BME280;56301;56.864;60.554;2023-06-22T10:10:15;97970.88;;;22.83;45.03
69187;BME280;56301;56.864;60.554;2023-06-22T10:12:40;97977.28;;;22.82;44.82
69187;BME280;56301;56.864;60.554;2023-06-22T10:15:03;97980.00;;;22.82;45.26
69187;BME280;56301;56.864;60.554;2023-06-22T10:17:26;97985.38;;;22.82;45.28
69187;BME280;56301;56.864;60.554;2023-06-22T10:19:48;97975.63;;;22.81;45.19
69187;BME280;56301;56.864;60.554;2023-06-22T10:22:11;97975.63;;;22.81;44.30
69187;BME280;56301;56.864;60.554;2023-06-22T10:24:33;97978.34;;;22.81;44.19
69187;BME280;56301;56.864;60.554;2023-06-22T10:26:55;97984.56;;;22.82;44.93
69187;BME280;56301;56.864;60.554;2023-06-22T10:29:18;97978.34;;;22.81;44.56
69187;BME280;56301;56.864;60.554;2023-06-22T10:31:40;97979.81;;;22.84;44.67
69187;BME280;56301;56.864;60.554;2023-06-22T10:34:03;97984.19;;;22.85;44.34
69187;BME280;56301;56.864;60.554;2023-06-22T10:36:25;97982.31;;;22.86;44.46
69187;BME280;56301;56.864;60.554;2023-06-22T10:38:48;97991.25;;;22.86;44.50
69187;BME280;56301;56.864;60.554;2023-06-22T10:41:11;97980.66;;;22.85;44.51
69187;BME280;56301;56.864;60.554;2023-06-22T10:43:33;97986.88;;;22.85;45.16
69187;BME280;56301;56.864;60.554;2023-06-22T10:45:56;97984.19;;;22.85;45.25
69187;BME280;56301;56.864;60.554;2023-06-22T10:48:18;97983.34;;;22.85;45.11
69187;BME280;56301;56.864;60.554;2023-06-22T10:50:41;97985.84;;;22.86;44.89
69187;BME280;56301;56.864;60.554;2023-06-22T10:53:03;97982.13;;;22.87;45.35
69187;BME280;56301;56.864;60.554;2023-06-22T10:55:25;97980.28;;;22.88;45.50
69187;BME280;56301;56.864;60.554;2023-06-22T10:57:48;97976.53;;;22.89;45.79
69187;BME280;56301;56.864;60.554;2023-06-22T11:00:11;97982.97;;;22.88;45.36
69187;BME280;56301;56.864;60.554;2023-06-22T11:02:33;97983.97;;;22.87;45.80
69187;BME280;56301;56.864;60.554;2023-06-22T11:04:56;97985.00;;;22.86;46.24
69187;BME280;56301;56.864;60.554;2023-06-22T11:07:18;97987.72;;;22.86;45.43
69187;BME280;56301;56.864;60.554;2023-06-22T11:09:40;97984.19;;;22.85;46.23
69187;BME280;56301;56.864;60.554;2023-06-22T11:12:05;97991.25;;;22.86;45.67
69187;BME280;56301;56.864;60.554;2023-06-22T11:14:27;97990.41;;;22.86;46.18
69187;BME280;56301;56.864;60.554;2023-06-22T11:16:50;97990.41;;;22.86;46.17
69187;BME280;56301;56.864;60.554;2023-06-22T11:19:12;97993.09;;;22.86;45.82
69187;BME280;56301;56.864;60.554;2023-06-22T11:21:35;97999.53;;;22.85;45.71
69187;BME280;56301;56.864;60.554;2023-06-22T11:23:57;98000.53;;;22.83;46.44
69187;BME280;56301;56.864;60.554;2023-06-22T11:26:20;97997.00;;;22.83;46.25
69187;BME280;56301;56.864;60.554;2023-06-22T11:28:42;98001.56;;;22.82;46.33
69187;BME280;56301;56.864;60.554;2023-06-22T11:31:05;98006.13;;;22.82;45.72
69187;BME280;56301;56.864;60.554;2023-06-22T11:33:27;98004.47;;;22.81;45.84
69187;BME280;56301;56.864;60.554;2023-06-22T11:35:50;98011.72;;;22.80;45.53
69187;BME280;56301;56.864;60.554;2023-06-22T11:38:12;98006.34;;;22.80;45.40
69187;BME280;56301;56.864;60.554;2023-06-22T11:40:34;98004.66;;;22.79;45.42
69187;BME280;56301;56.864;60.554;2023-06-22T11:42:57;98010.25;;;22.78;45.61
69187;BME280;56301;56.864;60.554;2023-06-22T11:45:20;98014.81;;;22.77;45.07
69187;BME280;56301;56.864;60.554;2023-06-22T11:47:42;98017.28;;;22.79;45.12
69187;BME280;56301;56.864;60.554;2023-06-22T11:50:05;98010.88;;;22.80;45.00
69187;BME280;56301;56.864;60.554;2023-06-22T11:52:28;98012.72;;;22.79;44.84
69187;BME280;56301;56.864;60.554;2023-06-22T11:54:50;98014.44;;;22.80;44.68
69187;BME280;56301;56.864;60.554;2023-06-22T11:57:13;98012.72;;;22.79;44.64
69187;BME280;56301;56.864;60.554;2023-06-22T11:59:35;98016.47;;;22.78;44.74
69187;BME280;56301;56.864;60.554;2023-06-22T12:01:57;98017.28;;;22.79;44.94
69187;BME280;56301;56.864;60.554;2023-06-22T12:04:20;98018.13;;;22.79;44.96
69187;BME280;56301;56.864;60.554;2023-06-22T12:06:42;98018.13;;;22.79;44.88
69187;BME280;56301;56.864;60.554;2023-06-22T12:09:05;98008.38;;;22.78;44.83
69187;BME280;56301;56.864;60.554;2023-06-22T12:11:27;98014.59;;;22.79;44.84
69187;BME280;56301;56.864;60.554;2023-06-22T12:13:50;98008.16;;;22.80;44.86
69187;BME280;56301;56.864;60.554;2023-06-22T12:16:12;98007.34;;;22.79;44.62
69187;BME280;56301;56.864;60.554;2023-06-22T12:18:34;98010.03;;;22.79;44.32
69187;BME280;56301;56.864;60.554;2023-06-22T12:20:57;98012.72;;;22.79;44.13
69187;BME280;56301;56.864;60.554;2023-06-22T12:23:19;98011.72;;;22.80;44.40
69187;BME280;56301;56.864;60.554;2023-06-22T12:25:42;98010.03;;;22.79;44.35
69187;BME280;56301;56.864;60.554;2023-06-22T12:28:04;98019.81;;;22.80;44.33
69187;BME280;56301;56.864;60.554;2023-06-22T12:30:27;98026.88;;;22.81;43.85
69187;BME280;56301;56.864;60.554;2023-06-22T12:32:49;98027.13;;;22.87;43.68
69187;BME280;56301;56.864;60.554;2023-06-22T12:35:11;98023.97;;;22.83;43.78
69187;BME280;56301;56.864;60.554;2023-06-22T12:37:34;98017.00;;;22.89;43.91